createdAt,value
2023-04-04T00:00:18.010Z,47.07
2023-04-04T00:02:44.767Z,46.32
2023-04-04T00:05:11.434Z,45.91
2023-04-04T00:07:38.172Z,46.68
2023-04-04T00:10:05.025Z,46.56
2023-04-04T00:12:31.652Z,45.95
2023-04-04T00:14:58.510Z,46.02
2023-04-04T00:17:25.111Z,45.93
2023-04-04T00:19:52.089Z,46.54
2023-04-04T00:22:19.161Z,46.72
2023-04-04T00:24:45.802Z,46.62
2023-04-04T00:27:12.384Z,46.37
2023-04-04T00:29:39.038Z,46.97
2023-04-04T00:32:05.997Z,46.89
2023-04-04T00:34:32.631Z,46.72
2023-04-04T00:36:59.210Z,46.91
2023-04-04T00:39:26.606Z,46.58
2023-04-04T00:41:53.278Z,46.47
2023-04-04T00:44:20.582Z,46.36
2023-04-04T00:46:47.263Z,46.03
2023-04-04T00:49:13.830Z,46.12
2023-04-04T00:51:40.418Z,46.26
2023-04-04T00:54:07.128Z,46.04
2023-04-04T00:56:38.232Z,46.20
2023-04-04T00:59:05.328Z,46.64
2023-04-04T01:01:33.217Z,46.25
2023-04-04T01:03:59.967Z,45.95
2023-04-04T01:06:28.033Z,46.28
2023-04-04T01:08:55.409Z,45.53
2023-04-04T01:11:21.990Z,45.45
2023-04-04T01:13:48.633Z,46.05
2023-04-04T01:16:15.763Z,45.56
2023-04-04T01:18:43.854Z,46.00
2023-04-04T01:21:13.389Z,45.77
2023-04-04T01:24:04.027Z,45.22
2023-04-04T01:26:31.762Z,45.63
2023-04-04T01:28:59.495Z,45.88
2023-04-04T01:31:49.695Z,45.42
2023-04-04T01:34:31.141Z,44.83
2023-04-04T01:37:11.154Z,45.61
2023-04-04T01:40:08.744Z,45.26
2023-04-04T01:42:36.738Z,45.21
2023-04-04T01:45:06.449Z,45.20
2023-04-04T01:47:42.422Z,45.17
2023-04-04T01:50:10.619Z,45.38
2023-04-04T01:52:38.564Z,45.37
2023-04-04T01:55:05.975Z,44.37
2023-04-04T01:57:32.670Z,44.89
2023-04-04T01:59:59.334Z,44.91
2023-04-04T02:02:27.264Z,44.35
2023-04-04T02:04:57.024Z,44.93
2023-04-04T02:07:24.381Z,44.38
2023-04-04T02:09:51.066Z,44.58
2023-04-04T02:12:17.819Z,44.37
2023-04-04T02:14:45.295Z,44.95
2023-04-04T02:17:11.955Z,44.78
2023-04-04T02:19:38.515Z,44.11
2023-04-04T02:22:05.190Z,44.24
2023-04-04T02:24:31.797Z,43.92
2023-04-04T02:27:00.677Z,44.27
2023-04-04T02:29:27.881Z,44.33
2023-04-04T02:31:54.575Z,43.90
2023-04-04T02:34:21.315Z,43.91
2023-04-04T02:36:47.915Z,43.34
2023-04-04T02:39:14.674Z,43.53
2023-04-04T02:41:41.741Z,42.96
2023-04-04T02:44:09.905Z,43.25
2023-04-04T02:46:36.635Z,43.55
2023-04-04T02:49:04.258Z,43.39
2023-04-04T02:51:31.303Z,42.59
2023-04-04T02:53:57.923Z,43.12
2023-04-04T02:56:24.602Z,42.77
2023-04-04T02:58:51.260Z,43.09
2023-04-04T03:01:18.155Z,43.12
2023-04-04T03:03:44.901Z,43.11
2023-04-04T03:06:11.669Z,43.59
2023-04-04T03:08:38.289Z,43.82
2023-04-04T03:11:05.029Z,43.73
2023-04-04T03:13:31.692Z,43.63
2023-04-04T03:16:03.541Z,44.04
2023-04-04T03:18:30.482Z,44.09
2023-04-04T03:20:57.075Z,44.39
2023-04-04T03:23:23.726Z,44.38
2023-04-04T03:25:51.946Z,44.45
2023-04-04T03:28:18.578Z,45.02
2023-04-04T03:30:45.201Z,45.50
2023-04-04T03:33:12.348Z,45.59
2023-04-04T03:35:40.053Z,45.71
2023-04-04T03:38:10.063Z,45.33
2023-04-04T03:40:37.205Z,45.63
2023-04-04T03:43:06.706Z,45.33
2023-04-04T03:45:36.487Z,45.14
2023-04-04T03:48:03.161Z,45.01
2023-04-04T03:50:30.136Z,45.69
2023-04-04T03:52:58.466Z,45.22
2023-04-04T03:55:26.402Z,44.92
2023-04-04T03:57:53.128Z,45.64
2023-04-04T04:00:22.114Z,44.99
2023-04-04T04:02:48.873Z,45.30
2023-04-04T04:05:15.746Z,44.59
2023-04-04T04:07:46.672Z,45.78
2023-04-04T04:10:14.302Z,44.89
2023-04-04T04:12:41.649Z,45.90
2023-04-04T04:15:08.781Z,45.67
2023-04-04T04:17:39.362Z,44.84
2023-04-04T04:20:07.670Z,44.91
2023-04-04T04:22:34.778Z,44.87
2023-04-04T04:25:04.817Z,45.05
2023-04-04T04:27:31.464Z,44.83
2023-04-04T04:29:58.106Z,44.59
2023-04-04T04:32:26.711Z,45.21
2023-04-04T04:34:53.628Z,44.82
2023-04-04T04:37:20.319Z,45.25
2023-04-04T04:39:46.961Z,45.21
2023-04-04T04:42:13.612Z,45.35
2023-04-04T04:44:40.315Z,45.33
2023-04-04T04:47:07.268Z,44.62
2023-04-04T04:49:34.328Z,44.81
2023-04-04T04:52:01.310Z,45.08
2023-04-04T04:54:29.483Z,44.94
2023-04-04T04:56:56.187Z,44.83
2023-04-04T04:59:22.909Z,44.11
2023-04-04T05:01:49.546Z,44.93
2023-04-04T05:04:17.741Z,45.42
2023-04-04T05:06:44.385Z,45.11
2023-04-04T05:09:11.204Z,44.36
2023-04-04T05:15:18.995Z,45.01
2023-04-04T05:17:46.825Z,44.63
2023-04-04T05:20:13.830Z,44.55
2023-04-04T05:22:48.556Z,44.82
2023-04-04T05:25:18.096Z,44.56
2023-04-04T05:27:48.861Z,44.88
2023-04-04T05:30:16.439Z,45.32
2023-04-04T05:32:48.193Z,45.63
2023-04-04T05:35:14.954Z,45.19
2023-04-04T05:37:41.612Z,44.40
2023-04-04T05:40:09.108Z,44.86
2023-04-04T05:42:38.288Z,44.90
2023-04-04T05:45:05.730Z,45.41
2023-04-04T05:47:32.506Z,44.71
2023-04-04T05:49:59.226Z,44.70
2023-04-04T05:52:25.897Z,44.34
2023-04-04T05:54:52.578Z,44.07
2023-04-04T05:57:19.200Z,44.16
2023-04-04T05:59:46.044Z,44.54
2023-04-04T06:02:15.541Z,43.20
2023-04-04T06:04:42.239Z,42.85
2023-04-04T06:07:08.841Z,42.99
2023-04-04T06:09:36.332Z,42.55
2023-04-04T06:12:04.790Z,42.97
2023-04-04T06:14:31.432Z,43.04
2023-04-04T06:16:59.103Z,41.70
2023-04-04T06:19:26.154Z,41.81
2023-04-04T06:21:52.763Z,42.23
2023-04-04T06:24:19.577Z,41.29
2023-04-04T06:26:46.674Z,40.27
2023-04-04T06:29:13.367Z,40.39
2023-04-04T06:31:40.070Z,40.00
2023-04-04T06:34:06.778Z,39.55
2023-04-04T06:36:33.572Z,39.39
2023-04-04T06:39:00.523Z,39.43
2023-04-04T06:41:27.342Z,38.62
2023-04-04T06:43:53.955Z,37.57
2023-04-04T06:46:20.656Z,37.43
2023-04-04T06:48:47.364Z,36.88
2023-04-04T06:51:17.581Z,36.09
2023-04-04T06:53:44.265Z,35.57
2023-04-04T06:56:13.775Z,36.07
2023-04-04T06:58:42.405Z,35.85
2023-04-04T07:01:09.162Z,35.37
2023-04-04T07:03:40.618Z,35.15
2023-04-04T07:06:07.321Z,35.62
2023-04-04T07:08:36.238Z,36.15
2023-04-04T07:11:06.788Z,34.67
2023-04-04T07:13:36.596Z,34.40
2023-04-04T07:16:08.746Z,34.11
2023-04-04T07:18:38.317Z,34.02
2023-04-04T07:21:08.516Z,34.09
2023-04-04T07:23:36.064Z,34.08
2023-04-04T07:26:08.268Z,34.11
2023-04-04T07:28:34.907Z,33.96
2023-04-04T07:31:04.835Z,34.20
2023-04-04T07:33:38.300Z,34.27
2023-04-04T07:36:07.685Z,34.53
2023-04-04T07:38:34.409Z,33.78
2023-04-04T07:41:02.439Z,33.46
2023-04-04T07:43:30.785Z,33.70
2023-04-04T07:46:04.578Z,34.24
2023-04-04T07:48:31.196Z,34.05
2023-04-04T07:51:00.252Z,33.90
2023-04-04T07:53:29.449Z,33.47
2023-04-04T07:55:56.070Z,33.43
2023-04-04T07:58:22.888Z,33.97
2023-04-04T08:00:49.507Z,33.60
2023-04-04T08:03:17.965Z,33.24
2023-04-04T08:05:44.709Z,34.00
2023-04-04T08:08:11.282Z,33.05
2023-04-04T08:10:38.112Z,33.26
2023-04-04T08:13:05.900Z,33.35
2023-04-04T08:15:32.615Z,33.23
2023-04-04T08:17:59.318Z,32.93
2023-04-04T08:20:29.200Z,33.40
2023-04-04T08:22:56.370Z,33.65
2023-04-04T08:25:23.388Z,33.34
2023-04-04T08:27:50.078Z,33.59
2023-04-04T08:30:17.108Z,32.68
2023-04-04T08:32:47.598Z,33.34
2023-04-04T08:35:17.050Z,33.02
2023-04-04T08:37:46.884Z,33.42
2023-04-04T08:40:14.440Z,33.53
2023-04-04T08:42:46.207Z,34.12
2023-04-04T08:45:17.153Z,33.52
2023-04-04T08:47:44.579Z,32.82
2023-04-04T08:50:16.782Z,32.56
2023-04-04T08:52:44.933Z,32.27
2023-04-04T08:55:12.740Z,32.59
2023-04-04T08:57:42.616Z,32.50
2023-04-04T09:00:10.083Z,31.93
2023-04-04T09:02:42.907Z,33.05
2023-04-04T09:05:14.021Z,32.91
2023-04-04T09:07:41.103Z,34.30
2023-04-04T09:10:11.950Z,33.91
2023-04-04T09:12:45.029Z,34.76
2023-04-04T09:15:14.680Z,34.60
2023-04-04T09:17:43.191Z,33.57
2023-04-04T09:20:43.254Z,33.89
2023-04-04T09:23:12.265Z,34.37
2023-04-04T09:25:56.311Z,34.05
2023-04-04T09:28:23.602Z,33.82
2023-04-04T09:30:51.840Z,33.75
2023-04-04T09:33:21.620Z,33.26
2023-04-04T09:36:05.245Z,33.52
2023-04-04T09:38:32.389Z,33.11
2023-04-04T09:40:59.416Z,32.76
2023-04-04T09:43:26.645Z,32.99
2023-04-04T09:45:58.325Z,33.06
2023-04-04T09:48:32.413Z,33.70
2023-04-04T09:50:59.561Z,33.93
2023-04-04T09:53:26.892Z,33.45
2023-04-04T09:55:55.549Z,33.57
2023-04-04T09:58:29.376Z,33.01
2023-04-04T10:00:59.240Z,33.76
2023-04-04T10:03:26.623Z,33.42
2023-04-04T10:06:10.099Z,33.04
2023-04-04T10:08:44.062Z,33.01
2023-04-04T10:11:13.656Z,33.21
2023-04-04T10:13:41.737Z,33.34
2023-04-04T10:16:12.314Z,35.50
2023-04-04T10:18:40.784Z,35.75
2023-04-04T10:21:15.817Z,35.88
2023-04-04T10:23:46.591Z,36.21
2023-04-04T10:26:13.789Z,35.96
2023-04-04T10:28:45.022Z,34.70
2023-04-04T10:31:27.505Z,33.92
2023-04-04T10:34:15.344Z,33.75
2023-04-04T10:36:51.377Z,32.03
2023-04-04T10:39:32.809Z,32.29
2023-04-04T10:42:01.680Z,32.66
2023-04-04T10:44:39.028Z,33.32
2023-04-04T10:47:18.168Z,33.54
2023-04-04T10:49:46.439Z,33.48
2023-04-04T10:52:15.995Z,34.42
2023-04-04T10:54:44.113Z,34.37
2023-04-04T10:57:12.745Z,34.18
2023-04-04T11:00:09.889Z,33.81
2023-04-04T11:02:57.205Z,34.27
2023-04-04T11:05:41.353Z,34.13
2023-04-04T11:08:11.004Z,34.07
2023-04-04T11:10:46.306Z,33.53
2023-04-04T11:13:29.686Z,33.41
2023-04-04T11:16:15.950Z,33.49
2023-04-04T11:18:42.879Z,32.84
2023-04-04T11:21:14.139Z,31.77
2023-04-04T11:23:50.120Z,32.05
2023-04-04T11:26:27.646Z,33.47
2023-04-04T11:28:58.756Z,33.84
2023-04-04T11:31:25.834Z,33.71
2023-04-04T11:34:11.515Z,34.08
2023-04-04T11:36:38.728Z,34.25
2023-04-04T11:39:13.624Z,33.95
2023-04-04T11:41:43.962Z,33.54
2023-04-04T11:44:11.790Z,33.30
2023-04-04T11:46:38.548Z,34.04
2023-04-04T11:49:10.329Z,33.72
2023-04-04T11:51:39.688Z,33.32
2023-04-04T11:54:15.511Z,33.70
2023-04-04T11:56:48.222Z,32.87
2023-04-04T11:59:22.819Z,33.29
2023-04-04T12:01:49.856Z,33.55
2023-04-04T12:04:20.505Z,34.74
2023-04-04T12:06:51.692Z,34.62
2023-04-04T12:09:20.430Z,34.46
2023-04-04T12:11:47.884Z,34.38
2023-04-04T12:14:24.303Z,34.97
2023-04-04T12:16:54.467Z,34.04
2023-04-04T12:19:27.778Z,32.89
2023-04-04T12:21:54.998Z,33.19
2023-04-04T12:24:21.921Z,34.17
2023-04-04T12:26:51.741Z,34.56
2023-04-04T12:29:23.388Z,34.89
2023-04-04T12:31:51.954Z,34.23
2023-04-04T12:37:02.966Z,33.85
2023-04-04T12:39:30.570Z,33.55
2023-04-04T12:42:03.622Z,34.24
2023-04-04T12:44:43.217Z,34.19
2023-04-04T12:47:11.396Z,34.11
2023-04-04T12:49:44.433Z,34.35
2023-04-04T12:52:30.080Z,33.89
2023-04-04T12:55:11.178Z,34.32
2023-04-04T12:57:39.524Z,33.90
2023-04-04T13:00:09.977Z,33.26
2023-04-04T13:02:43.093Z,33.26
2023-04-04T13:05:11.241Z,33.72
2023-04-04T13:07:43.690Z,33.80
2023-04-04T13:10:15.048Z,34.25
2023-04-04T13:13:02.578Z,33.95
2023-04-04T13:15:51.512Z,33.98
2023-04-04T13:18:24.874Z,34.11
2023-04-04T13:20:53.552Z,35.06
2023-04-04T13:23:20.961Z,35.41
2023-04-04T13:25:47.947Z,35.60
2023-04-04T13:28:14.636Z,35.53
2023-04-04T13:30:46.921Z,34.64
2023-04-04T13:33:16.411Z,34.67
2023-04-04T13:35:46.603Z,34.27
2023-04-04T13:38:13.882Z,35.21
2023-04-04T13:40:40.847Z,35.57
2023-04-04T13:43:07.926Z,36.02
2023-04-04T13:45:35.946Z,36.06
2023-04-04T13:48:04.118Z,36.40
2023-04-04T13:50:36.294Z,34.81
2023-04-04T13:53:06.107Z,35.28
2023-04-04T13:55:32.735Z,35.20
2023-04-04T13:58:02.278Z,35.93
2023-04-04T14:00:29.087Z,36.32
2023-04-04T14:02:57.966Z,36.41
2023-04-04T14:05:24.711Z,36.28
2023-04-04T14:07:51.585Z,36.27
2023-04-04T14:10:18.558Z,36.02
2023-04-04T14:12:45.219Z,35.73
2023-04-04T14:15:13.758Z,35.87
2023-04-04T14:17:40.596Z,35.78
2023-04-04T14:20:08.567Z,35.91
2023-04-04T14:22:35.646Z,36.07
2023-04-04T14:25:02.423Z,36.33
2023-04-04T14:27:31.651Z,36.31
2023-04-04T14:29:58.420Z,35.70
2023-04-04T14:32:26.022Z,36.02
2023-04-04T14:34:52.678Z,36.18
2023-04-04T14:37:19.814Z,36.27
2023-04-04T14:39:46.499Z,36.75
2023-04-04T14:42:13.129Z,35.94
2023-04-04T14:44:40.514Z,36.14
2023-04-04T14:47:07.297Z,36.51
2023-04-04T14:49:36.360Z,36.15
2023-04-04T14:52:03.052Z,36.40
2023-04-04T14:54:29.768Z,36.32
2023-04-04T14:56:57.941Z,36.00
2023-04-04T14:59:24.645Z,36.20
2023-04-04T15:01:51.626Z,36.46
2023-04-04T15:04:18.344Z,36.01
2023-04-04T15:06:45.004Z,36.32
2023-04-04T15:09:11.880Z,36.25
2023-04-04T15:11:38.655Z,36.78
2023-04-04T15:14:06.044Z,37.19
2023-04-04T15:16:33.515Z,36.82
2023-04-04T15:19:00.987Z,36.58
2023-04-04T15:21:28.962Z,36.35
2023-04-04T15:23:55.923Z,36.57
2023-04-04T15:26:22.912Z,36.95
2023-04-04T15:28:52.349Z,36.32
2023-04-04T15:31:20.932Z,36.38
2023-04-04T15:33:50.430Z,36.47
2023-04-04T15:36:17.520Z,36.38
2023-04-04T15:38:44.333Z,36.99
2023-04-04T15:41:11.401Z,36.63
2023-04-04T15:43:38.427Z,36.30
2023-04-04T15:46:05.518Z,36.40
2023-04-04T15:48:32.609Z,36.93
2023-04-04T15:51:02.674Z,37.27
2023-04-04T15:53:32.810Z,36.96
2023-04-04T15:56:00.815Z,36.76
2023-04-04T15:58:27.702Z,37.00
2023-04-04T16:00:55.939Z,37.11
2023-04-04T16:03:24.712Z,36.72
2023-04-04T16:05:51.624Z,37.20
2023-04-04T16:08:18.583Z,37.31
2023-04-04T16:10:45.263Z,37.06
2023-04-04T16:13:13.422Z,37.20
2023-04-04T16:15:40.217Z,37.39
2023-04-04T16:18:07.337Z,37.51
2023-04-04T16:20:34.253Z,37.07
2023-04-04T16:23:00.948Z,37.26
2023-04-04T16:25:27.740Z,37.37
2023-04-04T16:27:54.394Z,37.45
2023-04-04T16:30:21.127Z,37.89
2023-04-04T16:32:47.956Z,37.64
2023-04-04T16:35:14.625Z,37.96
2023-04-04T16:37:41.226Z,37.80
2023-04-04T16:40:08.458Z,37.53
2023-04-04T16:42:36.184Z,37.28
2023-04-04T16:45:03.004Z,36.91
2023-04-04T16:47:29.746Z,37.17
2023-04-04T16:49:56.532Z,37.68
2023-04-04T16:52:23.213Z,38.32
2023-04-04T16:54:49.928Z,38.21
2023-04-04T16:57:16.596Z,38.43
2023-04-04T16:59:43.756Z,38.77
2023-04-04T17:02:10.502Z,38.66
2023-04-04T17:04:41.988Z,38.96
2023-04-04T17:07:11.675Z,38.71
2023-04-04T17:09:38.591Z,39.16
2023-04-04T17:12:05.505Z,38.80
2023-04-04T17:14:32.141Z,39.01
2023-04-04T17:17:00.726Z,38.74
2023-04-04T17:19:31.860Z,39.33
2023-04-04T17:21:58.932Z,39.57
2023-04-04T17:24:27.236Z,39.09
2023-04-04T17:26:54.603Z,39.40
2023-04-04T17:29:26.562Z,39.21
2023-04-04T17:31:57.137Z,39.26
2023-04-04T17:34:24.352Z,39.31
2023-04-04T17:36:52.630Z,39.31
2023-04-04T17:39:19.365Z,39.99
2023-04-04T17:41:49.593Z,39.84
2023-04-04T17:44:20.190Z,39.48
2023-04-04T17:46:47.079Z,39.70
2023-04-04T17:49:19.538Z,40.18
2023-04-04T17:51:49.940Z,40.43
2023-04-04T17:54:17.525Z,40.29
2023-04-04T17:56:46.933Z,40.85
2023-04-04T17:59:14.809Z,40.71
2023-04-04T18:01:41.812Z,40.39
2023-04-04T18:04:09.091Z,40.52
2023-04-04T18:06:37.642Z,40.47
2023-04-04T18:09:05.608Z,39.52
2023-04-04T18:11:36.621Z,39.61
2023-04-04T18:14:04.279Z,39.32
2023-04-04T18:16:39.117Z,39.86
2023-04-04T18:19:07.517Z,39.75
2023-04-04T18:21:34.117Z,40.04
2023-04-04T18:24:00.848Z,40.40
2023-04-04T18:26:27.865Z,39.64
2023-04-04T18:28:54.558Z,40.06
2023-04-04T18:31:21.626Z,40.87
2023-04-04T18:33:49.908Z,40.32
2023-04-04T18:36:16.675Z,39.92
2023-04-04T18:38:43.383Z,40.61
2023-04-04T18:41:10.094Z,40.49
2023-04-04T18:43:37.279Z,40.45
2023-04-04T18:46:05.752Z,40.60
2023-04-04T18:48:33.894Z,40.39
2023-04-04T18:51:01.596Z,40.69
2023-04-04T18:53:31.403Z,40.27
2023-04-04T18:55:58.598Z,41.08
2023-04-04T18:58:26.058Z,41.18
2023-04-04T19:00:58.434Z,40.79
2023-04-04T19:03:26.665Z,40.68
2023-04-04T19:05:55.650Z,40.94
2023-04-04T19:08:24.212Z,40.82
2023-04-04T19:10:51.304Z,41.04
2023-04-04T19:13:18.475Z,40.84
2023-04-04T19:15:45.141Z,41.07
2023-04-04T19:18:11.900Z,40.81
2023-04-04T19:20:42.016Z,41.11
2023-04-04T19:23:08.849Z,41.03
2023-04-04T19:25:35.507Z,40.67
2023-04-04T19:28:04.261Z,41.05
2023-04-04T19:30:39.831Z,41.47
2023-04-04T19:33:14.773Z,41.09
2023-04-04T19:35:50.975Z,40.92
2023-04-04T19:38:33.765Z,41.86
2023-04-04T19:41:08.364Z,41.39
2023-04-04T19:43:35.066Z,41.86
2023-04-04T19:46:10.264Z,41.70
2023-04-04T19:48:50.940Z,41.69
2023-04-04T19:51:20.425Z,41.45
2023-04-04T19:53:49.580Z,41.59
2023-04-04T19:56:17.971Z,41.69
2023-04-04T19:58:45.662Z,40.83
2023-04-04T20:01:20.832Z,41.60
2023-04-04T20:03:48.154Z,41.36
2023-04-04T20:06:27.681Z,41.27
2023-04-04T20:08:59.555Z,40.91
2023-04-04T20:11:33.766Z,41.29
2023-04-04T20:14:02.584Z,41.15
2023-04-04T20:16:30.201Z,41.17
2023-04-04T20:18:59.081Z,41.37
2023-04-04T20:21:28.459Z,41.45
2023-04-04T20:23:57.881Z,41.02
2023-04-04T20:26:41.388Z,41.08
2023-04-04T20:29:15.480Z,41.59
2023-04-04T20:32:04.407Z,41.50
2023-04-04T20:34:39.423Z,41.53
2023-04-04T20:37:07.935Z,41.34
2023-04-04T20:39:45.529Z,41.30
2023-04-04T20:42:33.980Z,41.40
2023-04-04T20:45:09.809Z,41.79
2023-04-04T20:47:48.632Z,41.34
2023-04-04T20:50:18.623Z,41.33
2023-04-04T20:52:53.387Z,40.93
2023-04-04T20:55:22.720Z,41.14
2023-04-04T20:57:50.958Z,41.34
2023-04-04T21:00:29.722Z,40.75
2023-04-04T21:02:58.704Z,40.89
2023-04-04T21:05:33.554Z,40.81
2023-04-04T21:08:02.757Z,40.77
2023-04-04T21:10:29.403Z,40.78
2023-04-04T21:13:03.362Z,40.54
2023-04-04T21:15:35.104Z,40.74
2023-04-04T21:18:06.514Z,40.97
2023-04-04T21:20:49.073Z,40.60
2023-04-04T21:23:30.618Z,41.17
2023-04-04T21:25:59.705Z,40.79
2023-04-04T21:28:34.994Z,41.00
2023-04-04T21:31:09.097Z,40.51
2023-04-04T21:33:38.108Z,41.69
2023-04-04T21:36:07.768Z,40.91
2023-04-04T21:38:35.279Z,41.14
2023-04-04T21:41:10.761Z,40.81
2023-04-04T21:43:37.392Z,41.53
2023-04-04T21:46:04.095Z,41.15
2023-04-04T21:48:32.064Z,41.63
2023-04-04T21:50:58.729Z,41.23
2023-04-04T21:53:25.534Z,41.38
2023-04-04T21:55:52.086Z,41.26
2023-04-04T21:58:19.030Z,41.43
2023-04-04T22:00:45.677Z,40.88
2023-04-04T22:03:15.541Z,41.70
2023-04-04T22:05:42.478Z,41.86
2023-04-04T22:08:09.204Z,41.48
2023-04-04T22:10:45.583Z,41.42
2023-04-04T22:13:14.896Z,41.03
2023-04-04T22:15:44.960Z,41.77
2023-04-04T22:18:14.925Z,41.80
2023-04-04T22:20:46.530Z,41.48
2023-04-04T22:23:15.659Z,41.62
2023-04-04T22:25:42.367Z,42.05
2023-04-04T22:28:09.762Z,41.51
2023-04-04T22:30:39.210Z,41.70
2023-04-04T22:33:06.282Z,41.44
2023-04-04T22:35:35.638Z,41.19
2023-04-04T22:38:03.689Z,41.07
2023-04-04T22:40:32.162Z,41.12
2023-04-04T22:42:59.867Z,41.58
2023-04-04T22:45:27.252Z,41.07
2023-04-04T22:47:54.988Z,41.03
2023-04-04T22:50:23.416Z,41.55
2023-04-04T22:52:50.811Z,41.31
2023-04-04T22:55:20.917Z,41.60
2023-04-04T22:57:47.475Z,42.06
2023-04-04T23:00:14.964Z,41.69
2023-04-04T23:02:43.215Z,41.62
2023-04-04T23:05:10.695Z,41.59
2023-04-04T23:07:38.267Z,41.30
2023-04-04T23:10:06.224Z,41.49
2023-04-04T23:12:33.018Z,40.90
2023-04-04T23:15:01.609Z,42.04
2023-04-04T23:17:28.527Z,41.81
2023-04-04T23:19:55.220Z,41.48
2023-04-04T23:22:22.080Z,41.72
2023-04-04T23:24:49.163Z,42.43
2023-04-04T23:27:18.973Z,41.63
2023-04-04T23:29:46.576Z,40.91
2023-04-04T23:32:13.900Z,42.05
2023-04-04T23:34:40.590Z,41.79
2023-04-04T23:37:07.492Z,41.96
2023-04-04T23:39:34.388Z,41.27
2023-04-04T23:42:01.228Z,41.13
2023-04-04T23:44:27.898Z,41.38
2023-04-04T23:46:54.572Z,41.47
2023-04-04T23:49:21.280Z,41.19
2023-04-04T23:51:47.959Z,41.63
2023-04-04T23:54:14.666Z,41.23
2023-04-04T23:56:41.383Z,42.03
2023-04-04T23:59:08.244Z,41.71
